King City, California
Current Conditions -  °F | °C
As of 3:53 PM on Wednesday 22 Oct 2014 (Local Time) from KSNS Reporting Station
Clear Clear  
Wind Chill: 74°   Ceiling: Unl
Heat Index: 74°   Visibility: 10mi
Dew Point: 49°   Wind: 10mph
Humidity: 41%   Direction: 250°WSW
Pressure: 29.99"   Gusts: NA
Location:  36.21°N, 121.12°W
Report Text: KSNS 222253Z 25009KT 10SM CLR 23/09 A2999 RMK AO2 SLP165 T02330094
Loading
Personal Weather Stations






























Interactive Weather Map
Tropical Storm Tracking
New forecast layout! Learn more

10-Day Weather Forecast

Advertisements
Track Severe Weather on mobile